Time;durP1;ratioP1;P1;durP2;ratioP2;P2;SDS_P1;SDS_P2;PMS_P1;PMS_P2;Temp;Humidity;BMP_temperature;BMP_pressure;BME280_temperature;BME280_humidity;BME280_pressure;Samples;Min_cycle;Max_cycle;Signal;HPM_P1;HPM_P2
2020/12/20 00:01:19;;;;;;;27.43;25.60;;;;;;;;;;5114527;28;20713;-85
2020/12/20 00:03:46;;;;;;;29.63;27.43;;;;;;;;;;5115119;28;20414;-85
2020/12/20 00:06:13;;;;;;;27.33;25.43;;;;;;;;;;5114782;28;20527;-83
2020/12/20 00:08:40;;;;;;;26.30;24.40;;;;;;;;;;5098015;28;20432;-85
2020/12/20 00:11:07;;;;;;;27.67;25.73;;;;;;;;;;5114651;28;20193;-85
2020/12/20 00:13:34;;;;;;;26.23;24.53;;;;;;;;;;5114375;28;20483;-84
2020/12/20 00:16:00;;;;;;;27.27;25.47;;;;;;;;;;5114800;28;20394;-85
2020/12/20 00:18:28;;;;;;;27.40;25.50;;;;;;;;;;5114839;28;20931;-85
2020/12/20 00:20:55;;;;;;;26.50;24.63;;;;;;;;;;5114721;28;20956;-85
2020/12/20 00:23:22;;;;;;;27.87;25.77;;;;;;;;;;5114484;28;20421;-85
2020/12/20 00:25:49;;;;;;;26.30;24.60;;;;;;;;;;5114745;28;20543;-85
2020/12/20 00:28:16;;;;;;;26.83;25.03;;;;;;;;;;5117440;28;20459;-85
2020/12/20 00:30:42;;;;;;;26.80;25.00;;;;;;;;;;5118694;28;20466;-85
2020/12/20 00:33:09;;;;;;;28.27;26.17;;;;;;;;;;5119498;28;20435;-85
2020/12/20 00:35:37;;;;;;;27.90;25.80;;;;;;;;;;5118812;28;20529;-85
2020/12/20 00:38:04;;;;;;;28.20;26.20;;;;;;;;;;5118592;28;20466;-85
2020/12/20 00:40:31;;;;;;;27.70;25.80;;;;;;;;;;5118502;28;20211;-85
2020/12/20 00:42:57;;;;;;;29.10;27.00;;;;;;;;;;5118792;28;20445;-85
2020/12/20 00:45:24;;;;;;;29.20;26.83;;;;;;;;;;5118277;28;20466;-85
2020/12/20 00:47:51;;;;;;;27.17;25.30;;;;;;;;;;5118352;28;20440;-85
2020/12/20 00:50:18;;;;;;;28.00;26.10;;;;;;;;;;5118405;28;20443;-85
2020/12/20 00:52:47;;;;;;;27.27;25.27;;;;;;;;;;5118213;28;20434;-85
2020/12/20 00:55:14;;;;;;;26.80;24.83;;;;;;;;;;5100263;28;20217;-85
2020/12/20 00:57:40;;;;;;;26.97;25.20;;;;;;;;;;5118010;28;20638;-84
2020/12/20 01:00:07;;;;;;;27.03;25.03;;;;;;;;;;5118234;28;20447;-85
2020/12/20 01:02:34;;;;;;;26.53;24.80;;;;;;;;;;5118463;28;20448;-86
2020/12/20 01:05:04;;;;;;;28.33;26.33;;;;;;;;;;5100413;28;20453;-85
2020/12/20 01:07:32;;;;;;;27.33;25.43;;;;;;;;;;5118411;28;20234;-85
2020/12/20 01:10:00;;;;;;;27.90;25.90;;;;;;;;;;5119009;28;20497;-86
2020/12/20 01:12:27;;;;;;;27.37;25.17;;;;;;;;;;5117988;28;20433;-84
2020/12/20 01:14:57;;;;;;;27.20;25.03;;;;;;;;;;5118218;28;20435;-85
2020/12/20 01:17:24;;;;;;;27.75;25.55;;;;;;;;;;5117877;28;20783;-85
2020/12/20 01:19:51;;;;;;;27.17;25.30;;;;;;;;;;5118039;28;20579;-85
2020/12/20 01:22:18;;;;;;;26.47;24.67;;;;;;;;;;5117833;28;20434;-85
2020/12/20 01:24:45;;;;;;;27.73;25.30;;;;;;;;;;5117586;28;20454;-85
2020/12/20 01:27:13;;;;;;;26.57;24.57;;;;;;;;;;5117835;28;20413;-85
2020/12/20 01:29:40;;;;;;;26.05;24.25;;;;;;;;;;5100025;28;20799;-85
2020/12/20 01:32:06;;;;;;;26.30;24.40;;;;;;;;;;5117821;28;20212;-86
2020/12/20 01:34:33;;;;;;;26.73;24.83;;;;;;;;;;5117792;28;20433;-84
2020/12/20 01:37:00;;;;;;;26.83;24.93;;;;;;;;;;5117511;28;20446;-85
2020/12/20 01:39:27;;;;;;;26.77;24.90;;;;;;;;;;5117421;28;20460;-85
2020/12/20 01:41:54;;;;;;;26.93;25.07;;;;;;;;;;5117585;28;20455;-85
2020/12/20 01:44:22;;;;;;;26.33;24.50;;;;;;;;;;5117733;28;20443;-85
2020/12/20 01:46:51;;;;;;;27.80;25.87;;;;;;;;;;5116884;28;20512;-85
2020/12/20 01:49:18;;;;;;;26.60;24.90;;;;;;;;;;5117214;28;20917;-85
2020/12/20 01:51:47;;;;;;;26.77;24.93;;;;;;;;;;5117455;28;20186;-85
2020/12/20 01:54:13;;;;;;;26.70;24.90;;;;;;;;;;5117034;28;20944;-85
2020/12/20 01:56:41;;;;;;;27.63;25.20;;;;;;;;;;5117289;28;20446;-85
2020/12/20 01:59:08;;;;;;;26.40;24.63;;;;;;;;;;5116871;28;20982;-86
2020/12/20 02:01:36;;;;;;;26.02;24.23;;;;;;;;;;5116739;28;20684;-85
2020/12/20 02:04:03;;;;;;;28.53;26.17;;;;;;;;;;5116974;28;20200;-85
2020/12/20 02:06:30;;;;;;;26.50;24.70;;;;;;;;;;5117238;28;20792;-85
2020/12/20 02:08:56;;;;;;;26.63;24.83;;;;;;;;;;5116795;28;20420;-85
2020/12/20 02:11:23;;;;;;;28.13;26.00;;;;;;;;;;5116845;28;20243;-85
2020/12/20 02:13:52;;;;;;;27.17;25.37;;;;;;;;;;5098746;28;20472;-86
2020/12/20 02:16:19;;;;;;;26.85;25.05;;;;;;;;;;5116768;28;20766;-85
2020/12/20 02:18:47;;;;;;;25.97;24.17;;;;;;;;;;5116870;28;20197;-85
2020/12/20 02:21:15;;;;;;;27.13;25.23;;;;;;;;;;5116487;28;20410;-85
2020/12/20 02:23:43;;;;;;;26.45;24.45;;;;;;;;;;5116758;28;20190;-85
2020/12/20 02:26:10;;;;;;;26.97;24.97;;;;;;;;;;5116870;28;20221;-86
2020/12/20 02:28:38;;;;;;;26.47;24.70;;;;;;;;;;5099107;28;20450;-86
2020/12/20 02:31:04;;;;;;;27.00;25.20;;;;;;;;;;5116510;28;20416;-85
2020/12/20 02:33:31;;;;;;;25.70;23.97;;;;;;;;;;5116271;28;20409;-86
2020/12/20 02:35:58;;;;;;;25.70;24.00;;;;;;;;;;5116415;28;20427;-85
2020/12/20 02:38:26;;;;;;;26.20;24.50;;;;;;;;;;5116426;28;20567;-86
2020/12/20 02:40:53;;;;;;;26.27;24.47;;;;;;;;;;5098741;28;20617;-86
2020/12/20 02:43:20;;;;;;;27.83;25.90;;;;;;;;;;5116406;28;20443;-85
2020/12/20 02:45:47;;;;;;;25.67;23.80;;;;;;;;;;5116067;28;20471;-86
2020/12/20 02:48:14;;;;;;;25.80;23.90;;;;;;;;;;5116065;28;20435;-85
2020/12/20 02:50:41;;;;;;;26.50;24.57;;;;;;;;;;5098151;28;20485;-85
2020/12/20 02:53:07;;;;;;;26.73;24.73;;;;;;;;;;5116103;28;20439;-85
2020/12/20 02:55:35;;;;;;;26.97;25.07;;;;;;;;;;5115856;28;20430;-85
2020/12/20 02:58:02;;;;;;;26.67;24.85;;;;;;;;;;5115501;28;20455;-86
2020/12/20 03:00:31;;;;;;;26.80;25.00;;;;;;;;;;5115755;28;20189;-85
2020/12/20 03:02:58;;;;;;;27.07;25.07;;;;;;;;;;5115955;28;20461;-85
2020/12/20 03:05:25;;;;;;;27.33;25.43;;;;;;;;;;5115515;28;20486;-85
2020/12/20 03:07:52;;;;;;;26.60;24.90;;;;;;;;;;5115359;28;20481;-85
2020/12/20 03:10:19;;;;;;;27.60;25.55;;;;;;;;;;5116107;28;20413;-85
2020/12/20 03:12:47;;;;;;;26.70;24.93;;;;;;;;;;5115959;28;20245;-85
2020/12/20 03:15:14;;;;;;;27.33;25.10;;;;;;;;;;5115800;28;20444;-85
2020/12/20 03:17:41;;;;;;;28.97;26.87;;;;;;;;;;5115860;28;20444;-85
2020/12/20 03:20:08;;;;;;;27.10;25.20;;;;;;;;;;5115758;28;20887;-85
2020/12/20 03:22:35;;;;;;;27.97;26.07;;;;;;;;;;5115943;28;20438;-86
2020/12/20 03:25:02;;;;;;;27.40;25.50;;;;;;;;;;5115711;28;20422;-85
2020/12/20 03:27:29;;;;;;;27.33;25.43;;;;;;;;;;5115727;28;20450;-85
2020/12/20 03:29:56;;;;;;;26.83;24.95;;;;;;;;;;5115604;28;20462;-85
2020/12/20 03:32:24;;;;;;;28.00;25.90;;;;;;;;;;5115335;28;20640;-85
2020/12/20 03:34:51;;;;;;;27.02;25.02;;;;;;;;;;5116097;28;20421;-85
2020/12/20 03:37:18;;;;;;;26.70;24.90;;;;;;;;;;5115467;28;20541;-85
2020/12/20 03:39:44;;;;;;;28.73;26.73;;;;;;;;;;5097502;28;20977;-85
2020/12/20 03:42:11;;;;;;;27.70;25.80;;;;;;;;;;5115487;28;20196;-85
2020/12/20 03:44:38;;;;;;;27.77;25.87;;;;;;;;;;5115272;28;20193;-85
2020/12/20 03:47:06;;;;;;;27.90;25.90;;;;;;;;;;5115011;28;20465;-84
2020/12/20 03:49:33;;;;;;;28.50;26.50;;;;;;;;;;5115213;28;20816;-86
2020/12/20 03:52:00;;;;;;;28.83;26.73;;;;;;;;;;5115164;28;20463;-86
2020/12/20 03:54:26;;;;;;;28.50;26.37;;;;;;;;;;5115266;28;20472;-85
2020/12/20 03:56:55;;;;;;;27.63;25.50;;;;;;;;;;5097081;28;20447;-86
2020/12/20 03:59:22;;;;;;;28.15;26.25;;;;;;;;;;5098267;28;20599;-85
2020/12/20 04:01:49;;;;;;;27.83;25.93;;;;;;;;;;5113806;28;20528;-85
2020/12/20 04:04:17;;;;;;;27.90;25.90;;;;;;;;;;5097242;28;20419;-85
2020/12/20 04:06:44;;;;;;;27.70;25.80;;;;;;;;;;5096852;28;20456;-85
2020/12/20 04:09:11;;;;;;;27.73;25.80;;;;;;;;;;5115115;28;20570;-85
2020/12/20 04:11:38;;;;;;;29.50;26.90;;;;;;;;;;5114804;28;20439;-85
2020/12/20 04:14:05;;;;;;;28.30;26.25;;;;;;;;;;5114587;28;20226;-85
2020/12/20 04:16:31;;;;;;;28.13;26.17;;;;;;;;;;5115025;28;20193;-85
2020/12/20 04:18:58;;;;;;;29.17;27.02;;;;;;;;;;5115173;28;20193;-85
2020/12/20 04:21:26;;;;;;;29.35;27.05;;;;;;;;;;5114797;28;20196;-85
2020/12/20 04:23:53;;;;;;;28.10;26.20;;;;;;;;;;5115179;28;20624;-85
2020/12/20 04:26:20;;;;;;;27.90;25.90;;;;;;;;;;5114818;28;20532;-85
2020/12/20 04:28:47;;;;;;;27.70;25.80;;;;;;;;;;5114810;28;20185;-85
2020/12/20 04:31:13;;;;;;;27.50;25.67;;;;;;;;;;5114921;28;20269;-85
2020/12/20 04:33:41;;;;;;;29.05;27.05;;;;;;;;;;5114761;28;20205;-85
2020/12/20 04:36:08;;;;;;;27.80;25.95;;;;;;;;;;5114420;28;20219;-85
2020/12/20 04:38:35;;;;;;;27.83;25.83;;;;;;;;;;5114686;28;20578;-85
2020/12/20 04:41:02;;;;;;;28.35;26.35;;;;;;;;;;5114622;28;20699;-85
2020/12/20 04:43:30;;;;;;;27.50;25.40;;;;;;;;;;5115204;28;20238;-85
2020/12/20 04:45:58;;;;;;;29.63;27.53;;;;;;;;;;5114736;28;20208;-86
2020/12/20 04:48:29;;;;;;;28.00;26.08;;;;;;;;;;5114890;28;20450;-85
2020/12/20 04:50:56;;;;;;;30.70;28.50;;;;;;;;;;5114772;28;20185;-86
2020/12/20 04:53:23;;;;;;;29.63;27.45;;;;;;;;;;5114243;28;20189;-85
2020/12/20 04:55:52;;;;;;;29.57;27.50;;;;;;;;;;5097238;28;20209;-85
2020/12/20 04:58:19;;;;;;;30.23;27.93;;;;;;;;;;5114560;28;21001;-85
2020/12/20 05:00:46;;;;;;;28.50;26.45;;;;;;;;;;5113712;28;20915;-85
2020/12/20 05:03:13;;;;;;;29.17;27.08;;;;;;;;;;5114579;28;20191;-85
2020/12/20 05:05:39;;;;;;;29.13;27.13;;;;;;;;;;5114976;28;20230;-85
2020/12/20 05:08:06;;;;;;;31.50;29.10;;;;;;;;;;5113987;28;20409;-85
2020/12/20 05:10:40;;;;;;;29.60;27.40;;;;;;;;;;5114411;28;20663;-85
2020/12/20 05:13:07;;;;;;;29.23;27.27;;;;;;;;;;5114592;28;20955;-85
2020/12/20 05:15:36;;;;;;;28.40;26.50;;;;;;;;;;5117698;28;20463;-85
2020/12/20 05:18:06;;;;;;;28.93;26.90;;;;;;;;;;5117807;28;20238;-85
2020/12/20 05:20:37;;;;;;;28.85;26.65;;;;;;;;;;5117717;28;20455;-85
2020/12/20 05:23:05;;;;;;;28.33;26.43;;;;;;;;;;5117924;28;20634;-85
2020/12/20 05:25:32;;;;;;;29.77;27.67;;;;;;;;;;5100161;28;20449;-85
2020/12/20 05:28:06;;;;;;;28.50;26.50;;;;;;;;;;5117965;28;20630;-85
2020/12/20 05:30:33;;;;;;;29.33;27.13;;;;;;;;;;5117658;28;20188;-85
2020/12/20 05:33:00;;;;;;;28.63;26.43;;;;;;;;;;5117805;28;20416;-85
2020/12/20 05:35:27;;;;;;;35.40;32.70;;;;;;;;;;5099650;28;20468;-84
2020/12/20 05:37:54;;;;;;;28.43;26.53;;;;;;;;;;5117316;28;20218;-85
2020/12/20 05:40:25;;;;;;;29.65;27.48;;;;;;;;;;5117362;28;20909;-85
2020/12/20 05:42:54;;;;;;;28.73;26.80;;;;;;;;;;5117463;28;20205;-85
2020/12/20 05:45:20;;;;;;;29.23;27.23;;;;;;;;;;5117509;28;20303;-86
2020/12/20 05:47:48;;;;;;;27.65;25.65;;;;;;;;;;5117204;28;20439;-86
2020/12/20 05:50:15;;;;;;;28.65;26.50;;;;;;;;;;5117310;28;20193;-85
2020/12/20 05:52:42;;;;;;;30.23;27.93;;;;;;;;;;5117286;28;20262;-86
2020/12/20 05:55:11;;;;;;;29.73;27.50;;;;;;;;;;5117394;28;20450;-86
2020/12/20 05:57:39;;;;;;;28.50;26.10;;;;;;;;;;5116886;28;20411;-85
2020/12/20 06:00:06;;;;;;;30.13;27.83;;;;;;;;;;5116897;28;20394;-86
2020/12/20 06:02:33;;;;;;;28.20;26.20;;;;;;;;;;5117373;28;20421;-85
2020/12/20 06:05:02;;;;;;;28.92;26.92;;;;;;;;;;5117178;28;20766;-86
2020/12/20 06:07:29;;;;;;;28.63;26.50;;;;;;;;;;5117327;28;20292;-85
2020/12/20 06:09:57;;;;;;;29.40;27.40;;;;;;;;;;5116793;28;20194;-86
2020/12/20 06:12:25;;;;;;;28.90;26.80;;;;;;;;;;5117320;28;20888;-86
2020/12/20 06:14:52;;;;;;;29.80;27.60;;;;;;;;;;5116747;28;20749;-85
2020/12/20 06:17:20;;;;;;;28.37;26.17;;;;;;;;;;5116725;28;20672;-86
2020/12/20 06:19:58;;;;;;;30.00;27.70;;;;;;;;;;5116713;28;20493;-85
2020/12/20 06:22:27;;;;;;;30.42;28.13;;;;;;;;;;5116867;28;20207;-85
2020/12/20 06:24:55;;;;;;;29.37;27.17;;;;;;;;;;5115988;28;20528;-86
2020/12/20 06:27:23;;;;;;;29.48;27.27;;;;;;;;;;5098312;28;20521;-85
2020/12/20 06:29:51;;;;;;;29.92;27.73;;;;;;;;;;5116606;28;20308;-86
2020/12/20 06:32:26;;;;;;;30.10;28.00;;;;;;;;;;5116628;28;20193;-86
2020/12/20 06:34:53;;;;;;;31.13;28.83;;;;;;;;;;5116789;28;20197;-86
2020/12/20 06:37:20;;;;;;;30.70;28.45;;;;;;;;;;5116300;28;20282;-85
2020/12/20 06:39:48;;;;;;;29.43;27.23;;;;;;;;;;5116169;28;20190;-85
2020/12/20 06:42:15;;;;;;;30.58;28.00;;;;;;;;;;5098329;28;20446;-86
2020/12/20 06:44:41;;;;;;;33.35;30.38;;;;;;;;;;5116452;28;20186;-86
2020/12/20 06:47:08;;;;;;;32.15;29.75;;;;;;;;;;5116205;28;20214;-86
2020/12/20 06:49:36;;;;;;;31.45;29.15;;;;;;;;;;5098482;28;20191;-86
2020/12/20 06:52:31;;;;;;;30.35;28.08;;;;;;;;;;5116428;28;20197;-87
2020/12/20 06:55:04;;;;;;;30.15;27.90;;;;;;;;;;5115906;28;20196;-85
2020/12/20 06:57:31;;;;;;;28.70;26.50;;;;;;;;;;5116069;28;20193;-85
2020/12/20 06:59:58;;;;;;;29.67;27.55;;;;;;;;;;5116000;28;20194;-85
2020/12/20 07:02:44;;;;;;;30.30;27.90;;;;;;;;;;5115864;28;20204;-85
2020/12/20 07:05:29;;;;;;;32.95;30.40;;;;;;;;;;5116295;28;20192;-85
2020/12/20 07:08:06;;;;;;;30.92;28.58;;;;;;;;;;5116379;28;20185;-85
2020/12/20 07:10:51;;;;;;;30.13;27.92;;;;;;;;;;5115940;28;20188;-85
2020/12/20 07:13:32;;;;;;;30.35;28.15;;;;;;;;;;5115798;28;20233;-86
2020/12/20 07:16:04;;;;;;;31.40;28.98;;;;;;;;;;5116069;28;20243;-85
2020/12/20 07:18:48;;;;;;;31.30;29.10;;;;;;;;;;5116036;28;20190;-85
2020/12/20 07:21:33;;;;;;;30.55;28.25;;;;;;;;;;5115915;28;20402;-85
2020/12/20 07:24:05;;;;;;;30.73;28.52;;;;;;;;;;5116429;28;20228;-86
2020/12/20 07:26:32;;;;;;;32.05;29.75;;;;;;;;;;5115038;28;20257;-86
2020/12/20 07:29:01;;;;;;;32.20;29.83;;;;;;;;;;5116030;28;20194;-86
2020/12/20 07:31:28;;;;;;;33.10;30.67;;;;;;;;;;5115384;28;20190;-86
2020/12/20 07:33:55;;;;;;;33.78;31.17;;;;;;;;;;5115647;28;20197;-85
2020/12/20 07:36:22;;;;;;;36.42;33.67;;;;;;;;;;5115426;28;20186;-86
2020/12/20 07:38:49;;;;;;;35.55;32.75;;;;;;;;;;5114972;28;20214;-85
2020/12/20 07:41:17;;;;;;;34.00;31.30;;;;;;;;;;5097312;28;20206;-85
2020/12/20 07:43:44;;;;;;;33.47;30.88;;;;;;;;;;5115413;28;20193;-87
2020/12/20 07:46:12;;;;;;;38.88;35.67;;;;;;;;;;5115167;28;20232;-86
2020/12/20 07:48:39;;;;;;;46.63;42.58;;;;;;;;;;5115021;28;20187;-87
2020/12/20 07:51:09;;;;;;;36.33;33.58;;;;;;;;;;5116494;28;20206;-87
2020/12/20 07:53:36;;;;;;;38.08;35.08;;;;;;;;;;5115385;28;20185;-88
2020/12/20 07:56:03;;;;;;;33.25;30.70;;;;;;;;;;5115207;28;20186;-87
2020/12/20 07:58:31;;;;;;;36.90;34.03;;;;;;;;;;5097443;28;20226;-85
2020/12/20 08:01:05;;;;;;;37.22;34.33;;;;;;;;;;5115140;28;20605;-85
2020/12/20 08:03:33;;;;;;;38.33;35.30;;;;;;;;;;5115001;28;20212;-84
2020/12/20 08:06:07;;;;;;;37.33;34.50;;;;;;;;;;5114672;28;20212;-86
2020/12/20 08:08:34;;;;;;;32.20;29.90;;;;;;;;;;5115144;28;20586;-86
2020/12/20 08:11:03;;;;;;;203.65;164.95;;;;;;;;;;5114802;28;20415;-84
2020/12/20 08:13:30;;;;;;;40.97;37.50;;;;;;;;;;5114663;28;20229;-83
2020/12/20 08:15:57;;;;;;;96.47;75.07;;;;;;;;;;5114909;28;20506;-84
2020/12/20 08:18:24;;;;;;;56.00;50.25;;;;;;;;;;5114698;28;20196;-85
2020/12/20 08:20:53;;;;;;;36.67;33.67;;;;;;;;;;5114974;28;20201;-84
2020/12/20 08:23:20;;;;;;;80.97;73.85;;;;;;;;;;5115084;28;20221;-85
2020/12/20 08:25:47;;;;;;;42.83;39.15;;;;;;;;;;5115031;28;20685;-86
2020/12/20 08:28:14;;;;;;;39.37;35.97;;;;;;;;;;5114735;28;20195;-85
2020/12/20 08:30:41;;;;;;;37.10;34.20;;;;;;;;;;5115160;28;20447;-87
2020/12/20 08:33:08;;;;;;;30.58;28.38;;;;;;;;;;5115059;28;20527;-88
2020/12/20 08:35:34;;;;;;;31.10;29.00;;;;;;;;;;5114604;28;20224;-88
2020/12/20 08:38:02;;;;;;;33.63;31.23;;;;;;;;;;5114640;28;20443;-87
2020/12/20 08:40:31;;;;;;;31.65;29.45;;;;;;;;;;5114953;28;20425;-87
2020/12/20 08:42:58;;;;;;;31.63;29.30;;;;;;;;;;5115561;28;20208;-88
2020/12/20 08:45:25;;;;;;;32.40;30.05;;;;;;;;;;5114821;28;20418;-89
2020/12/20 08:47:52;;;;;;;31.95;29.52;;;;;;;;;;5115085;28;20522;-87
2020/12/20 08:50:24;;;;;;;31.00;28.70;;;;;;;;;;5118544;28;20202;-87
2020/12/20 08:52:58;;;;;;;31.17;28.95;;;;;;;;;;5118481;28;20245;-87
2020/12/20 08:55:26;;;;;;;30.27;28.07;;;;;;;;;;5118422;28;20195;-87
2020/12/20 08:58:01;;;;;;;30.60;28.40;;;;;;;;;;5118601;28;20436;-87
2020/12/20 09:00:28;;;;;;;30.00;27.88;;;;;;;;;;5118338;28;20207;-86
2020/12/20 09:02:58;;;;;;;31.63;29.23;;;;;;;;;;5118208;28;20197;-86
2020/12/20 09:05:27;;;;;;;31.55;29.02;;;;;;;;;;5118398;28;20189;-87
2020/12/20 09:07:55;;;;;;;32.42;29.92;;;;;;;;;;5101435;28;20553;-87
2020/12/20 09:10:25;;;;;;;35.38;32.53;;;;;;;;;;5118409;28;20549;-87
2020/12/20 09:12:54;;;;;;;31.88;29.55;;;;;;;;;;5119368;28;20287;-86
2020/12/20 09:15:21;;;;;;;31.88;29.38;;;;;;;;;;5118373;28;20196;-86
2020/12/20 09:17:49;;;;;;;33.17;30.70;;;;;;;;;;5118443;28;20287;-86
2020/12/20 09:20:16;;;;;;;32.75;30.30;;;;;;;;;;5118134;28;20198;-86
2020/12/20 09:22:45;;;;;;;32.40;29.90;;;;;;;;;;5118021;28;20323;-87
2020/12/20 09:25:12;;;;;;;30.02;27.83;;;;;;;;;;5118182;28;20193;-88
2020/12/20 09:27:39;;;;;;;29.87;27.70;;;;;;;;;;5117986;28;20228;-88
2020/12/20 09:30:07;;;;;;;33.13;30.73;;;;;;;;;;5117610;28;20476;-87
2020/12/20 09:32:37;;;;;;;31.15;29.05;;;;;;;;;;5117303;28;20706;-88
2020/12/20 09:35:07;;;;;;;32.08;29.65;;;;;;;;;;5117425;28;20225;-88
2020/12/20 09:37:38;;;;;;;31.67;29.35;;;;;;;;;;5117938;28;20282;-87
2020/12/20 09:40:06;;;;;;;30.70;28.60;;;;;;;;;;5117870;28;20256;-87
2020/12/20 09:42:40;;;;;;;30.58;28.38;;;;;;;;;;5099744;28;20205;-86
2020/12/20 09:45:08;;;;;;;30.38;28.27;;;;;;;;;;5117782;28;20584;-88
2020/12/20 09:47:39;;;;;;;29.70;27.60;;;;;;;;;;5117478;28;20220;-86
2020/12/20 09:50:06;;;;;;;31.25;29.15;;;;;;;;;;5117534;28;20182;-90
2020/12/20 09:52:33;;;;;;;32.58;29.83;;;;;;;;;;5117418;28;20246;-82
2020/12/20 09:55:00;;;;;;;31.83;29.55;;;;;;;;;;5117207;28;20552;-85
2020/12/20 09:57:27;;;;;;;30.45;28.20;;;;;;;;;;5098912;28;20250;-92
2020/12/20 09:59:54;;;;;;;33.05;30.75;;;;;;;;;;5115915;28;20186;-81
2020/12/20 10:02:21;;;;;;;30.55;28.45;;;;;;;;;;5116218;28;20192;-79
2020/12/20 10:04:48;;;;;;;30.58;28.48;;;;;;;;;;5116968;28;20201;-89
2020/12/20 10:07:15;;;;;;;32.35;30.15;;;;;;;;;;5116262;28;20223;-82
2020/12/20 10:09:42;;;;;;;32.40;30.00;;;;;;;;;;5116343;28;20197;-80
2020/12/20 10:12:09;;;;;;;30.30;28.20;;;;;;;;;;5115887;28;20186;-83
2020/12/20 10:14:36;;;;;;;31.15;28.77;;;;;;;;;;5116276;28;20449;-78
2020/12/20 10:17:03;;;;;;;29.63;27.52;;;;;;;;;;5116232;28;20196;-81
2020/12/20 10:19:31;;;;;;;30.27;28.00;;;;;;;;;;5116403;28;20635;-80
2020/12/20 10:21:58;;;;;;;34.47;31.88;;;;;;;;;;5116431;28;20216;-81
2020/12/20 10:24:24;;;;;;;31.53;29.13;;;;;;;;;;5115936;28;20654;-79
2020/12/20 10:26:51;;;;;;;30.17;28.17;;;;;;;;;;5116183;28;20552;-80
2020/12/20 10:29:19;;;;;;;31.10;28.90;;;;;;;;;;5116152;28;20185;-80
2020/12/20 10:31:46;;;;;;;31.40;28.85;;;;;;;;;;5116013;28;20290;-80
2020/12/20 10:34:13;;;;;;;43.67;38.92;;;;;;;;;;5115886;28;20225;-79
2020/12/20 10:36:41;;;;;;;34.40;31.40;;;;;;;;;;5115982;28;20204;-80
2020/12/20 10:39:08;;;;;;;68.87;52.33;;;;;;;;;;5116591;28;20528;-83
2020/12/20 10:41:36;;;;;;;31.50;29.17;;;;;;;;;;5115369;28;20439;-81
2020/12/20 10:44:03;;;;;;;32.60;30.15;;;;;;;;;;5115921;28;20193;-77
2020/12/20 10:46:30;;;;;;;32.05;29.85;;;;;;;;;;5114860;28;20225;-77
2020/12/20 10:48:57;;;;;;;30.43;28.30;;;;;;;;;;5115732;28;20275;-79
2020/12/20 10:51:24;;;;;;;31.00;28.55;;;;;;;;;;5098050;28;20441;-80
2020/12/20 10:53:52;;;;;;;31.20;29.00;;;;;;;;;;5115446;28;20554;-80
2020/12/20 10:56:19;;;;;;;30.00;27.90;;;;;;;;;;5115637;28;20765;-79
2020/12/20 10:58:46;;;;;;;29.63;27.40;;;;;;;;;;5114600;28;20451;-81
2020/12/20 11:01:15;;;;;;;30.70;28.52;;;;;;;;;;5115493;28;20190;-79
2020/12/20 11:03:49;;;;;;;31.05;28.95;;;;;;;;;;5097442;28;20201;-81
2020/12/20 11:06:20;;;;;;;29.25;27.33;;;;;;;;;;5096480;28;20260;-81
2020/12/20 11:08:47;;;;;;;32.03;29.73;;;;;;;;;;5114332;28;20603;-82
2020/12/20 11:11:15;;;;;;;31.02;28.92;;;;;;;;;;5114752;28;20507;-81
2020/12/20 11:13:42;;;;;;;31.05;28.85;;;;;;;;;;5115589;28;20244;-89
2020/12/20 11:16:18;;;;;;;30.90;28.90;;;;;;;;;;5116118;28;20194;-93
2020/12/20 11:18:46;;;;;;;30.17;28.17;;;;;;;;;;5115617;28;20193;-89
2020/12/20 11:21:13;;;;;;;30.27;28.02;;;;;;;;;;5115838;28;20223;-89
2020/12/20 11:23:40;;;;;;;31.00;28.70;;;;;;;;;;5116585;28;20193;-90
2020/12/20 11:26:11;;;;;;;30.40;28.23;;;;;;;;;;5115636;28;20567;-89
2020/12/20 11:28:39;;;;;;;29.40;27.20;;;;;;;;;;5115933;28;20435;-90
2020/12/20 11:31:06;;;;;;;32.30;30.20;;;;;;;;;;5115590;28;20418;-89
2020/12/20 11:33:33;;;;;;;30.80;28.90;;;;;;;;;;5115564;28;20208;-89
2020/12/20 11:35:59;;;;;;;31.83;29.52;;;;;;;;;;5115824;28;20189;-90
2020/12/20 11:38:26;;;;;;;30.95;28.88;;;;;;;;;;5115246;28;20692;-90
2020/12/20 11:40:53;;;;;;;30.77;28.87;;;;;;;;;;5115292;28;20189;-90
2020/12/20 11:43:20;;;;;;;29.30;27.30;;;;;;;;;;5097109;28;20425;-90
2020/12/20 11:45:49;;;;;;;29.75;27.85;;;;;;;;;;5115283;28;20429;-80
2020/12/20 11:48:16;;;;;;;31.55;29.25;;;;;;;;;;5115282;28;20190;-91
2020/12/20 11:50:43;;;;;;;32.07;29.87;;;;;;;;;;5114738;28;20201;-91
2020/12/20 11:53:10;;;;;;;31.20;29.20;;;;;;;;;;5115408;28;20533;-94
2020/12/20 11:55:37;;;;;;;30.57;28.57;;;;;;;;;;5115308;28;20208;-93
2020/12/20 11:58:08;;;;;;;29.97;28.03;;;;;;;;;;5115435;28;20431;-92
2020/12/20 12:00:35;;;;;;;28.80;26.90;;;;;;;;;;5114796;28;20421;-89
2020/12/20 12:03:02;;;;;;;29.13;27.10;;;;;;;;;;5114830;28;20406;-86
2020/12/20 12:05:29;;;;;;;29.50;27.60;;;;;;;;;;5114353;28;20880;-79
2020/12/20 12:07:56;;;;;;;28.53;26.70;;;;;;;;;;5113946;28;20481;-79
2020/12/20 12:10:23;;;;;;;28.77;26.77;;;;;;;;;;5114322;28;20463;-79
2020/12/20 12:12:51;;;;;;;31.57;29.43;;;;;;;;;;5114136;28;20480;-80
2020/12/20 12:15:19;;;;;;;30.20;28.20;;;;;;;;;;5114300;28;20458;-78
2020/12/20 12:17:46;;;;;;;28.73;26.87;;;;;;;;;;5096139;28;20458;-80
2020/12/20 12:20:14;;;;;;;28.80;26.93;;;;;;;;;;5114164;28;20442;-80
2020/12/20 12:22:42;;;;;;;28.75;26.90;;;;;;;;;;5114437;28;20800;-80
2020/12/20 12:25:09;;;;;;;29.33;27.40;;;;;;;;;;5100108;28;20568;-78
2020/12/20 12:27:35;;;;;;;29.13;27.15;;;;;;;;;;5117888;28;20486;-79
2020/12/20 12:30:02;;;;;;;29.63;27.53;;;;;;;;;;5100162;28;20224;-79
2020/12/20 12:32:29;;;;;;;27.52;25.73;;;;;;;;;;5118363;28;20443;-80
2020/12/20 12:34:57;;;;;;;28.43;26.60;;;;;;;;;;5118425;28;20739;-80
2020/12/20 12:37:24;;;;;;;28.53;26.63;;;;;;;;;;5118466;28;20522;-78
2020/12/20 12:39:51;;;;;;;29.47;27.57;;;;;;;;;;5116096;28;20478;-79
2020/12/20 12:42:18;;;;;;;30.47;28.37;;;;;;;;;;5117428;28;20925;-82
2020/12/20 12:44:45;;;;;;;28.30;26.30;;;;;;;;;;5118010;28;20450;-84
2020/12/20 12:47:12;;;;;;;30.05;27.95;;;;;;;;;;5118129;28;20482;-80
2020/12/20 12:49:40;;;;;;;29.97;27.97;;;;;;;;;;5117162;28;20565;-77
2020/12/20 12:52:07;;;;;;;30.27;28.27;;;;;;;;;;5117575;28;20431;-76
2020/12/20 12:54:35;;;;;;;29.58;27.55;;;;;;;;;;5117722;28;20440;-77
2020/12/20 12:57:02;;;;;;;29.10;26.93;;;;;;;;;;5117526;28;20194;-81
2020/12/20 12:59:29;;;;;;;30.97;28.77;;;;;;;;;;5119618;27;20420;-76
2020/12/20 13:01:57;;;;;;;29.27;27.27;;;;;;;;;;5126237;27;20454;-79
2020/12/20 13:04:24;;;;;;;28.40;26.50;;;;;;;;;;5126657;27;20457;-80
2020/12/20 13:06:53;;;;;;;27.80;25.70;;;;;;;;;;5124947;27;20482;-80
2020/12/20 13:09:19;;;;;;;28.52;26.63;;;;;;;;;;5130105;27;20531;-78
2020/12/20 13:11:48;;;;;;;28.10;26.13;;;;;;;;;;5128714;27;20219;-78
2020/12/20 13:14:15;;;;;;;27.43;25.33;;;;;;;;;;5117049;28;20465;-79
2020/12/20 13:16:41;;;;;;;27.57;25.77;;;;;;;;;;5116296;28;20417;-80
2020/12/20 13:19:09;;;;;;;29.27;27.17;;;;;;;;;;5116968;28;21185;-83
2020/12/20 13:21:36;;;;;;;27.70;25.60;;;;;;;;;;5118481;28;20434;-84
2020/12/20 13:24:02;;;;;;;27.17;25.37;;;;;;;;;;5117430;28;20462;-83
2020/12/20 13:26:30;;;;;;;29.10;27.20;;;;;;;;;;5118081;28;20535;-82
2020/12/20 13:28:58;;;;;;;27.43;25.63;;;;;;;;;;5117576;28;20714;-82
2020/12/20 13:31:25;;;;;;;27.53;25.67;;;;;;;;;;5117462;28;20418;-83
2020/12/20 13:33:55;;;;;;;28.52;25.83;;;;;;;;;;5117367;28;20467;-82
2020/12/20 13:36:25;;;;;;;28.37;26.37;;;;;;;;;;5117204;28;20201;-82
2020/12/20 13:38:52;;;;;;;26.60;24.70;;;;;;;;;;5117424;28;20426;-83
2020/12/20 13:41:18;;;;;;;28.90;26.90;;;;;;;;;;5117382;28;20438;-82
2020/12/20 13:43:45;;;;;;;26.90;25.10;;;;;;;;;;5117185;28;20462;-83
2020/12/20 13:46:13;;;;;;;28.00;25.90;;;;;;;;;;5117202;28;20445;-82
2020/12/20 13:48:40;;;;;;;30.30;28.00;;;;;;;;;;5117184;28;20432;-82
2020/12/20 13:51:07;;;;;;;28.60;26.60;;;;;;;;;;5117180;28;20418;-83
2020/12/20 13:53:34;;;;;;;28.07;26.03;;;;;;;;;;5117122;28;20414;-82
2020/12/20 13:56:01;;;;;;;27.30;25.40;;;;;;;;;;5116836;28;20431;-83
2020/12/20 13:58:28;;;;;;;26.33;24.52;;;;;;;;;;5116901;28;20432;-82
2020/12/20 14:00:54;;;;;;;27.63;25.63;;;;;;;;;;5117222;28;20321;-87
2020/12/20 14:03:23;;;;;;;28.63;26.60;;;;;;;;;;5116946;28;20604;-82
2020/12/20 14:05:50;;;;;;;27.40;25.43;;;;;;;;;;5116809;28;20435;-82
2020/12/20 14:08:17;;;;;;;26.90;25.10;;;;;;;;;;5116997;28;20490;-83
2020/12/20 14:10:43;;;;;;;29.40;27.30;;;;;;;;;;5116903;28;20402;-83
2020/12/20 14:13:10;;;;;;;28.43;26.63;;;;;;;;;;5116592;28;20457;-84
2020/12/20 14:15:37;;;;;;;29.40;27.37;;;;;;;;;;5098439;28;20443;-83
2020/12/20 14:18:04;;;;;;;27.83;25.93;;;;;;;;;;5098489;28;20451;-83
2020/12/20 14:20:32;;;;;;;27.87;25.87;;;;;;;;;;5116504;28;20406;-83